Terminal Aerodrome Forecast
Issued by NWS

Home | Current Version | Previous Version | Text Only | Print | Product List | Glossary On
Versions: 1 2 3 4 5 6 7 8 9 10 11 12 13 14 15 16 17 18 19
666
FTUS43 KTOP 312327
TAFFOE
TAF
KFOE 312327Z 0100/0124 16004KT P6SM FEW040
     FM011000 35002KT 5SM BR FEW200
     FM011300 03005KT P6SM FEW200=

USA.gov is the U.S. government's official web portal to all federal, state and local government web resources and services.